Time;durP1;ratioP1;P1;durP2;ratioP2;P2;SDS_P1;SDS_P2;PMS_P1;PMS_P2;Temp;Humidity;BMP_temperature;BMP_pressure;BME280_temperature;BME280_humidity;BME280_pressure;Samples;Min_cycle;Max_cycle;Signal;HPM_P1;HPM_P2
2023/04/09 00:00:01;;;;;;;22.40;16.27;;;;;;;;;;5071722;28;20314;-54
2023/04/09 00:02:27;;;;;;;22.10;16.13;;;;;;;;;;5071524;28;20608;-55
2023/04/09 00:04:53;;;;;;;20.57;15.90;;;;;;;;;;5071588;28;20901;-55
2023/04/09 00:07:19;;;;;;;23.50;16.37;;;;;;;;;;5071411;28;20279;-55
2023/04/09 00:09:45;;;;;;;21.97;15.53;;;;;;;;;;5071539;28;20595;-55
2023/04/09 00:12:11;;;;;;;21.07;15.93;;;;;;;;;;5071345;28;20199;-55
2023/04/09 00:14:37;;;;;;;20.57;15.43;;;;;;;;;;5072642;28;20195;-55
2023/04/09 00:17:04;;;;;;;21.53;16.00;;;;;;;;;;5075744;28;20807;-55
2023/04/09 00:19:32;;;;;;;19.47;15.87;;;;;;;;;;5075201;28;20272;-55
2023/04/09 00:21:58;;;;;;;23.03;16.60;;;;;;;;;;5075727;28;20207;-55
2023/04/09 00:24:24;;;;;;;39.60;29.50;;;;;;;;;;5075396;28;20260;-55
2023/04/09 00:26:50;;;;;;;29.23;21.83;;;;;;;;;;5075459;28;20191;-55
2023/04/09 00:29:16;;;;;;;24.37;17.77;;;;;;;;;;5075348;28;20187;-55
2023/04/09 00:31:42;;;;;;;22.60;16.47;;;;;;;;;;5074978;28;20287;-55
2023/04/09 00:34:09;;;;;;;22.53;17.10;;;;;;;;;;5075339;28;20248;-55
2023/04/09 00:36:35;;;;;;;26.07;16.70;;;;;;;;;;5075192;28;20272;-55
2023/04/09 00:39:01;;;;;;;25.30;18.10;;;;;;;;;;5075225;28;20215;-55
2023/04/09 00:41:27;;;;;;;28.63;16.97;;;;;;;;;;5075040;28;20235;-55
2023/04/09 00:43:56;;;;;;;29.13;19.93;;;;;;;;;;5075068;28;20223;-55
2023/04/09 00:46:22;;;;;;;26.93;19.10;;;;;;;;;;5075014;28;20234;-55
2023/04/09 00:48:48;;;;;;;23.13;18.63;;;;;;;;;;5075055;28;20207;-55
2023/04/09 00:51:15;;;;;;;30.33;20.00;;;;;;;;;;5074895;28;20309;-55
2023/04/09 00:53:42;;;;;;;28.40;19.23;;;;;;;;;;5074809;28;20204;-55
2023/04/09 00:56:10;;;;;;;31.20;20.17;;;;;;;;;;5074708;28;20581;-55
2023/04/09 00:58:36;;;;;;;28.60;19.97;;;;;;;;;;5074560;28;20689;-55
2023/04/09 01:01:02;;;;;;;31.30;20.90;;;;;;;;;;5074863;28;20278;-55
2023/04/09 01:03:29;;;;;;;31.20;21.03;;;;;;;;;;5074646;28;20187;-55
2023/04/09 01:06:00;;;;;;;30.50;21.67;;;;;;;;;;5074764;28;20286;-55
2023/04/09 01:08:32;;;;;;;31.87;22.67;;;;;;;;;;5074616;28;20200;-54
2023/04/09 01:11:02;;;;;;;33.73;23.13;;;;;;;;;;5074719;28;20257;-55
2023/04/09 01:13:30;;;;;;;34.50;23.57;;;;;;;;;;5074452;28;20199;-54
2023/04/09 01:15:58;;;;;;;32.00;22.97;;;;;;;;;;5074475;28;20560;-55
2023/04/09 01:18:28;;;;;;;33.43;23.07;;;;;;;;;;5074260;28;20249;-55
2023/04/09 01:20:57;;;;;;;35.13;23.40;;;;;;;;;;5074236;28;20315;-55
2023/04/09 01:23:31;;;;;;;31.57;22.07;;;;;;;;;;5074228;28;20239;-55
2023/04/09 01:26:04;;;;;;;34.13;22.93;;;;;;;;;;5074369;28;20194;-55
2023/04/09 01:28:33;;;;;;;34.47;24.17;;;;;;;;;;5074285;28;20269;-55
2023/04/09 01:31:01;;;;;;;33.57;23.17;;;;;;;;;;5074370;28;20216;-55
2023/04/09 01:33:28;;;;;;;34.90;24.07;;;;;;;;;;5073931;28;20253;-55
2023/04/09 01:35:55;;;;;;;33.10;23.20;;;;;;;;;;5074189;28;20573;-55
2023/04/09 01:38:22;;;;;;;33.17;22.77;;;;;;;;;;5073999;28;20446;-55
2023/04/09 01:40:49;;;;;;;34.53;24.20;;;;;;;;;;5073959;28;20641;-55
2023/04/09 01:43:15;;;;;;;31.80;22.63;;;;;;;;;;5074013;28;20222;-55
2023/04/09 01:45:44;;;;;;;34.33;23.83;;;;;;;;;;5074190;28;20196;-55
2023/04/09 01:48:10;;;;;;;35.73;24.00;;;;;;;;;;5074006;28;20204;-55
2023/04/09 01:50:36;;;;;;;31.90;22.83;;;;;;;;;;5073816;28;20199;-55
2023/04/09 01:53:02;;;;;;;35.43;23.20;;;;;;;;;;5073779;28;20200;-55
2023/04/09 01:55:28;;;;;;;35.53;24.10;;;;;;;;;;5073706;28;20202;-54
2023/04/09 01:57:54;;;;;;;35.20;23.77;;;;;;;;;;5073815;28;20442;-54
2023/04/09 02:00:20;;;;;;;35.53;23.17;;;;;;;;;;5073403;28;20610;-55
2023/04/09 02:02:53;;;;;;;31.07;22.13;;;;;;;;;;5073723;28;20621;-55
2023/04/09 02:05:21;;;;;;;35.60;22.67;;;;;;;;;;5073552;28;20210;-54
2023/04/09 02:07:52;;;;;;;31.30;21.43;;;;;;;;;;5073348;28;20736;-56
2023/04/09 02:10:19;;;;;;;30.40;20.90;;;;;;;;;;5073219;28;20257;-55
2023/04/09 02:12:48;;;;;;;30.43;21.53;;;;;;;;;;5073530;28;20245;-55
2023/04/09 02:15:14;;;;;;;33.13;21.73;;;;;;;;;;5073353;28;20195;-56
2023/04/09 02:17:40;;;;;;;33.23;22.80;;;;;;;;;;5073463;28;20630;-55
2023/04/09 02:20:09;;;;;;;29.23;21.57;;;;;;;;;;5073332;28;20751;-54
2023/04/09 02:22:35;;;;;;;29.23;20.83;;;;;;;;;;5073214;28;20196;-56
2023/04/09 02:25:01;;;;;;;29.27;21.13;;;;;;;;;;5073317;28;20767;-57
2023/04/09 02:27:27;;;;;;;33.10;22.53;;;;;;;;;;5073023;28;20294;-55
2023/04/09 02:29:53;;;;;;;31.70;22.53;;;;;;;;;;5073003;28;20902;-55
2023/04/09 02:32:19;;;;;;;32.10;21.63;;;;;;;;;;5073194;28;20230;-55
2023/04/09 02:34:44;;;;;;;32.47;23.03;;;;;;;;;;5073496;28;20201;-56
2023/04/09 02:37:12;;;;;;;29.90;20.70;;;;;;;;;;5072577;28;20666;-55
2023/04/09 02:39:38;;;;;;;30.07;21.83;;;;;;;;;;5072721;28;20219;-55
2023/04/09 02:42:06;;;;;;;29.20;21.60;;;;;;;;;;5073004;28;20685;-55
2023/04/09 02:44:32;;;;;;;39.53;23.67;;;;;;;;;;5072882;28;20203;-55
2023/04/09 02:46:58;;;;;;;29.27;21.67;;;;;;;;;;5072976;28;20676;-55
2023/04/09 02:49:24;;;;;;;32.20;22.90;;;;;;;;;;5072710;28;20194;-54
2023/04/09 02:51:50;;;;;;;35.17;24.67;;;;;;;;;;5072936;28;20234;-56
2023/04/09 02:54:17;;;;;;;34.97;24.30;;;;;;;;;;5072660;28;20477;-55
2023/04/09 02:56:43;;;;;;;36.30;25.07;;;;;;;;;;5072246;28;20223;-55
2023/04/09 02:59:09;;;;;;;38.63;26.20;;;;;;;;;;5070640;28;20469;-57
2023/04/09 03:01:35;;;;;;;36.40;23.87;;;;;;;;;;5072470;28;20199;-55
2023/04/09 03:04:01;;;;;;;32.87;23.37;;;;;;;;;;5072287;28;20484;-56
2023/04/09 03:06:27;;;;;;;30.53;22.97;;;;;;;;;;5072185;28;20203;-56
2023/04/09 03:08:53;;;;;;;36.50;24.37;;;;;;;;;;5072351;28;20438;-55
2023/04/09 03:11:21;;;;;;;30.70;23.03;;;;;;;;;;5072014;28;20445;-55
2023/04/09 03:13:47;;;;;;;29.47;22.30;;;;;;;;;;5072174;28;20209;-56
2023/04/09 03:16:13;;;;;;;30.47;21.13;;;;;;;;;;5072123;28;20287;-55
2023/04/09 03:18:39;;;;;;;30.13;21.33;;;;;;;;;;5072005;28;20207;-55
2023/04/09 03:21:06;;;;;;;35.30;23.77;;;;;;;;;;5071930;28;20292;-56
2023/04/09 03:23:33;;;;;;;33.60;23.10;;;;;;;;;;5071583;28;20226;-56
2023/04/09 03:26:00;;;;;;;32.77;23.87;;;;;;;;;;5071867;28;20469;-55
2023/04/09 03:28:27;;;;;;;37.10;24.43;;;;;;;;;;5071831;28;20195;-55
2023/04/09 03:30:53;;;;;;;33.00;23.60;;;;;;;;;;5071692;28;20202;-55
2023/04/09 03:33:19;;;;;;;38.57;26.00;;;;;;;;;;5071484;28;20235;-55
2023/04/09 03:35:45;;;;;;;38.57;25.53;;;;;;;;;;5071852;28;20653;-55
2023/04/09 03:38:11;;;;;;;40.17;26.73;;;;;;;;;;5071884;28;20479;-56
2023/04/09 03:40:37;;;;;;;38.70;26.40;;;;;;;;;;5071499;28;20595;-55
2023/04/09 03:43:03;;;;;;;47.70;30.27;;;;;;;;;;5071637;28;20204;-55
2023/04/09 03:45:30;;;;;;;42.80;29.00;;;;;;;;;;5071697;28;20676;-55
2023/04/09 03:47:56;;;;;;;42.03;26.67;;;;;;;;;;5071709;28;20203;-55
2023/04/09 03:50:22;;;;;;;40.57;27.63;;;;;;;;;;5070613;28;20445;-55
2023/04/09 03:52:48;;;;;;;42.07;27.93;;;;;;;;;;5071616;28;20293;-55
2023/04/09 03:55:14;;;;;;;45.77;29.20;;;;;;;;;;5071597;28;20203;-55
2023/04/09 03:57:40;;;;;;;44.47;28.63;;;;;;;;;;5071263;28;20752;-55
2023/04/09 04:00:07;;;;;;;46.47;28.93;;;;;;;;;;5071402;28;20471;-55
2023/04/09 04:02:34;;;;;;;42.53;28.13;;;;;;;;;;5071307;28;20662;-55
2023/04/09 04:05:00;;;;;;;47.37;28.20;;;;;;;;;;5071527;28;20538;-55
2023/04/09 04:07:26;;;;;;;44.47;28.57;;;;;;;;;;5071328;28;20517;-55
2023/04/09 04:09:52;;;;;;;45.63;30.23;;;;;;;;;;5071339;28;20274;-55
2023/04/09 04:12:18;;;;;;;44.10;27.43;;;;;;;;;;5071281;28;20548;-55
2023/04/09 04:14:44;;;;;;;41.53;27.23;;;;;;;;;;5071406;28;20200;-55
2023/04/09 04:17:10;;;;;;;38.60;26.50;;;;;;;;;;5071506;28;20607;-55
2023/04/09 04:19:37;;;;;;;41.53;26.43;;;;;;;;;;5071245;28;20231;-55
2023/04/09 04:22:03;;;;;;;39.03;26.60;;;;;;;;;;5071307;28;20461;-55
2023/04/09 04:24:30;;;;;;;35.43;24.37;;;;;;;;;;5071185;28;20666;-55
2023/04/09 04:26:55;;;;;;;33.23;22.70;;;;;;;;;;5071261;28;20199;-55
2023/04/09 04:29:21;;;;;;;34.43;22.80;;;;;;;;;;5071155;28;20215;-55
2023/04/09 04:31:47;;;;;;;29.20;21.17;;;;;;;;;;5070967;28;20239;-56
2023/04/09 04:34:14;;;;;;;29.60;21.53;;;;;;;;;;5069928;28;20241;-55
2023/04/09 04:36:41;;;;;;;26.73;19.97;;;;;;;;;;5071039;28;20570;-55
2023/04/09 04:39:07;;;;;;;30.07;21.20;;;;;;;;;;5070940;28;20207;-55
2023/04/09 04:41:33;;;;;;;27.47;20.07;;;;;;;;;;5070960;28;20203;-55
2023/04/09 04:43:59;;;;;;;25.80;19.57;;;;;;;;;;5071217;28;20666;-55
2023/04/09 04:46:25;;;;;;;26.70;18.93;;;;;;;;;;5069342;28;20202;-55
2023/04/09 04:48:51;;;;;;;24.47;18.73;;;;;;;;;;5071394;28;20659;-55
2023/04/09 04:51:17;;;;;;;27.80;19.30;;;;;;;;;;5071208;28;20242;-56
2023/04/09 04:53:44;;;;;;;25.47;19.47;;;;;;;;;;5071435;28;20607;-55
2023/04/09 04:56:12;;;;;;;26.67;19.17;;;;;;;;;;5071178;28;20589;-55
2023/04/09 04:58:38;;;;;;;26.20;19.67;;;;;;;;;;5071254;28;21120;-55
2023/04/09 05:01:04;;;;;;;27.77;20.50;;;;;;;;;;5072918;28;20526;-55
2023/04/09 05:03:30;;;;;;;27.23;20.33;;;;;;;;;;5075047;28;20200;-55
2023/04/09 05:05:56;;;;;;;28.30;20.63;;;;;;;;;;5075053;28;20524;-55
2023/04/09 05:08:22;;;;;;;28.20;18.83;;;;;;;;;;5074846;28;20468;-55
2023/04/09 05:10:50;;;;;;;25.83;19.93;;;;;;;;;;5074895;28;20275;-55
2023/04/09 05:13:16;;;;;;;24.00;19.13;;;;;;;;;;5074986;28;20210;-55
2023/04/09 05:15:42;;;;;;;29.33;20.77;;;;;;;;;;5074711;28;20449;-55
2023/04/09 05:18:08;;;;;;;27.43;19.47;;;;;;;;;;5074820;28;20196;-56
2023/04/09 05:20:34;;;;;;;25.53;18.80;;;;;;;;;;5074465;28;20985;-56
2023/04/09 05:23:00;;;;;;;23.30;18.47;;;;;;;;;;5074888;28;20445;-55
2023/04/09 05:25:26;;;;;;;25.70;19.03;;;;;;;;;;5074436;28;20438;-56
2023/04/09 05:27:54;;;;;;;23.57;18.20;;;;;;;;;;5074723;28;20226;-56
2023/04/09 05:30:20;;;;;;;24.67;18.60;;;;;;;;;;5074564;28;20203;-56
2023/04/09 05:32:47;;;;;;;24.03;18.47;;;;;;;;;;5074339;28;20801;-56
2023/04/09 05:35:13;;;;;;;25.23;18.30;;;;;;;;;;5074626;28;20487;-56
2023/04/09 05:37:39;;;;;;;25.03;19.67;;;;;;;;;;5074295;28;20442;-56
2023/04/09 05:40:05;;;;;;;23.43;18.20;;;;;;;;;;5074292;28;20216;-56
2023/04/09 05:42:31;;;;;;;25.57;17.43;;;;;;;;;;5074382;28;20456;-56
2023/04/09 05:44:59;;;;;;;19.47;16.30;;;;;;;;;;5074442;28;20924;-55
2023/04/09 05:47:25;;;;;;;22.13;16.90;;;;;;;;;;5074268;28;20291;-56
2023/04/09 05:49:51;;;;;;;22.37;17.27;;;;;;;;;;5074446;28;20466;-56
2023/04/09 05:52:17;;;;;;;22.10;16.67;;;;;;;;;;5074272;28;20503;-56
2023/04/09 05:54:43;;;;;;;21.77;16.30;;;;;;;;;;5074217;28;20944;-55
2023/04/09 05:57:09;;;;;;;19.97;15.60;;;;;;;;;;5074111;28;20238;-56
2023/04/09 05:59:35;;;;;;;22.87;16.90;;;;;;;;;;5072018;28;20298;-57
2023/04/09 06:02:02;;;;;;;22.67;17.00;;;;;;;;;;5072471;28;20855;-56
2023/04/09 06:04:28;;;;;;;22.33;17.23;;;;;;;;;;5072175;28;20294;-56
2023/04/09 06:06:55;;;;;;;22.87;16.37;;;;;;;;;;5073835;28;20858;-56
2023/04/09 06:09:21;;;;;;;21.33;16.33;;;;;;;;;;5073911;28;20472;-56
2023/04/09 06:11:47;;;;;;;18.50;15.47;;;;;;;;;;5073267;28;20446;-57
2023/04/09 06:14:16;;;;;;;20.63;16.47;;;;;;;;;;5073663;28;20249;-56
2023/04/09 06:16:42;;;;;;;18.57;15.67;;;;;;;;;;5073860;28;20249;-55
2023/04/09 06:19:11;;;;;;;18.73;15.53;;;;;;;;;;5073734;28;20446;-56
2023/04/09 06:21:37;;;;;;;19.67;15.43;;;;;;;;;;5073749;28;20203;-56
2023/04/09 06:24:04;;;;;;;19.43;16.40;;;;;;;;;;5073774;28;20481;-56
2023/04/09 06:26:30;;;;;;;19.87;16.33;;;;;;;;;;5073685;28;20515;-56
2023/04/09 06:28:55;;;;;;;19.67;15.87;;;;;;;;;;5073757;28;20932;-56
2023/04/09 06:31:21;;;;;;;21.20;16.67;;;;;;;;;;5073366;28;20194;-56
2023/04/09 06:33:47;;;;;;;21.53;16.53;;;;;;;;;;5073536;28;20203;-56
2023/04/09 06:36:15;;;;;;;19.67;15.70;;;;;;;;;;5073571;28;20203;-56
2023/04/09 06:38:41;;;;;;;18.67;15.80;;;;;;;;;;5073472;28;20231;-56
2023/04/09 06:41:07;;;;;;;20.40;16.47;;;;;;;;;;5073290;28;20227;-56
2023/04/09 06:43:35;;;;;;;18.97;16.03;;;;;;;;;;5073189;28;20936;-56
2023/04/09 06:46:01;;;;;;;21.83;16.50;;;;;;;;;;5073350;28;20444;-55
2023/04/09 06:48:27;;;;;;;23.57;18.57;;;;;;;;;;5073184;28;20438;-56
2023/04/09 06:50:54;;;;;;;22.23;17.83;;;;;;;;;;5073115;28;20211;-56
2023/04/09 06:53:21;;;;;;;19.43;16.73;;;;;;;;;;5073160;28;20468;-55
2023/04/09 06:55:47;;;;;;;21.07;16.30;;;;;;;;;;5072830;28;20465;-56
2023/04/09 06:58:13;;;;;;;21.13;16.37;;;;;;;;;;5073046;28;20448;-56
2023/04/09 07:00:39;;;;;;;19.53;16.03;;;;;;;;;;5072744;28;20266;-56
2023/04/09 07:03:07;;;;;;;19.63;16.57;;;;;;;;;;5072930;28;20199;-56
2023/04/09 07:05:33;;;;;;;20.40;16.93;;;;;;;;;;5072767;28;20196;-56
2023/04/09 07:08:00;;;;;;;20.97;15.70;;;;;;;;;;5072944;28;20475;-56
2023/04/09 07:10:27;;;;;;;21.43;16.93;;;;;;;;;;5072635;28;20192;-56
2023/04/09 07:12:53;;;;;;;19.93;16.33;;;;;;;;;;5072828;28;20446;-56
2023/04/09 07:15:19;;;;;;;21.03;15.33;;;;;;;;;;5072620;28;20437;-55
2023/04/09 07:17:45;;;;;;;23.27;16.80;;;;;;;;;;5072621;28;20611;-56
2023/04/09 07:20:11;;;;;;;20.57;17.03;;;;;;;;;;5072537;28;20473;-56
2023/04/09 07:22:37;;;;;;;18.13;14.93;;;;;;;;;;5072484;28;20195;-56
2023/04/09 07:25:04;;;;;;;22.67;15.93;;;;;;;;;;5072313;28;20436;-56
2023/04/09 07:27:32;;;;;;;21.73;17.03;;;;;;;;;;5072490;28;20267;-55
2023/04/09 07:29:58;;;;;;;20.97;16.97;;;;;;;;;;5072445;28;20855;-57
2023/04/09 07:32:25;;;;;;;21.37;16.07;;;;;;;;;;5072149;28;20531;-55
2023/04/09 07:34:52;;;;;;;22.90;17.63;;;;;;;;;;5072074;28;20461;-56
2023/04/09 07:37:17;;;;;;;28.53;21.13;;;;;;;;;;5072367;28;20463;-56
2023/04/09 07:39:44;;;;;;;29.27;21.57;;;;;;;;;;5072152;28;20477;-56
2023/04/09 07:42:10;;;;;;;32.77;22.93;;;;;;;;;;5072164;28;20203;-56
2023/04/09 07:44:37;;;;;;;33.20;22.47;;;;;;;;;;5070942;28;20968;-56
2023/04/09 07:47:03;;;;;;;30.10;22.67;;;;;;;;;;5072099;28;20430;-56
2023/04/09 07:49:29;;;;;;;33.17;23.90;;;;;;;;;;5072184;28;20437;-55
2023/04/09 07:51:56;;;;;;;33.57;22.23;;;;;;;;;;5072043;28;20513;-56
2023/04/09 07:54:22;;;;;;;35.07;24.57;;;;;;;;;;5071528;28;20442;-55
2023/04/09 07:56:48;;;;;;;34.77;22.37;;;;;;;;;;5068187;28;20994;-56
2023/04/09 07:59:14;;;;;;;32.47;21.07;;;;;;;;;;5071649;28;20195;-56
2023/04/09 08:01:42;;;;;;;31.90;22.30;;;;;;;;;;5071276;28;20203;-55
2023/04/09 08:04:08;;;;;;;32.30;21.87;;;;;;;;;;5071457;28;20590;-56
2023/04/09 08:06:35;;;;;;;38.17;23.40;;;;;;;;;;5071458;28;20440;-55
2023/04/09 08:09:01;;;;;;;36.47;24.00;;;;;;;;;;5071270;28;20434;-55
2023/04/09 08:11:27;;;;;;;35.43;24.07;;;;;;;;;;5071345;28;20452;-55
2023/04/09 08:13:53;;;;;;;38.83;24.03;;;;;;;;;;5071260;28;20443;-56
2023/04/09 08:16:20;;;;;;;36.63;24.87;;;;;;;;;;5071270;28;20245;-56
2023/04/09 08:18:47;;;;;;;40.53;24.43;;;;;;;;;;5071318;28;20521;-56
2023/04/09 08:21:13;;;;;;;37.00;24.60;;;;;;;;;;5071238;28;21015;-55
2023/04/09 08:23:39;;;;;;;35.80;24.00;;;;;;;;;;5071060;28;20429;-56
2023/04/09 08:26:05;;;;;;;33.07;22.37;;;;;;;;;;5070971;28;20192;-55
2023/04/09 08:28:31;;;;;;;39.37;24.20;;;;;;;;;;5071168;28;20440;-56
2023/04/09 08:30:57;;;;;;;39.07;24.93;;;;;;;;;;5071186;28;20664;-55
2023/04/09 08:33:23;;;;;;;30.57;21.57;;;;;;;;;;5070907;28;20241;-55
2023/04/09 08:35:50;;;;;;;34.10;21.50;;;;;;;;;;5072640;28;20437;-56
2023/04/09 08:38:16;;;;;;;33.30;22.67;;;;;;;;;;5075015;28;20214;-56
2023/04/09 08:40:42;;;;;;;30.83;21.40;;;;;;;;;;5074882;28;20580;-56
2023/04/09 08:43:09;;;;;;;32.90;22.03;;;;;;;;;;5074904;28;20271;-56
2023/04/09 08:45:35;;;;;;;32.80;22.30;;;;;;;;;;5074847;28;20204;-56
2023/04/09 08:48:02;;;;;;;34.33;24.50;;;;;;;;;;5075021;28;20202;-56
2023/04/09 08:50:28;;;;;;;33.80;24.17;;;;;;;;;;5074876;28;20512;-55
2023/04/09 08:52:56;;;;;;;40.60;26.33;;;;;;;;;;5074825;28;20487;-56
2023/04/09 08:55:22;;;;;;;38.83;25.63;;;;;;;;;;5074541;28;20207;-56
2023/04/09 08:57:48;;;;;;;39.53;26.97;;;;;;;;;;5074761;28;20434;-56
2023/04/09 09:00:14;;;;;;;42.93;28.77;;;;;;;;;;5074616;28;20764;-56
2023/04/09 09:03:02;;;;;;;43.97;28.27;;;;;;;;;;5073978;28;20210;-55
2023/04/09 09:05:35;;;;;;;45.53;28.70;;;;;;;;;;5074488;28;20438;-56
2023/04/09 09:08:02;;;;;;;40.80;26.87;;;;;;;;;;5074568;28;20448;-56
2023/04/09 09:10:36;;;;;;;45.93;31.27;;;;;;;;;;5074495;28;20446;-56
2023/04/09 09:13:15;;;;;;;43.23;28.07;;;;;;;;;;5074629;28;20441;-56
2023/04/09 09:15:41;;;;;;;44.70;29.27;;;;;;;;;;5074462;28;20730;-56
2023/04/09 09:18:07;;;;;;;40.17;26.90;;;;;;;;;;5074499;28;20430;-55
2023/04/09 09:20:33;;;;;;;40.80;26.60;;;;;;;;;;5074227;28;20530;-56
2023/04/09 09:23:00;;;;;;;39.87;26.80;;;;;;;;;;5074508;28;20188;-56
2023/04/09 09:25:29;;;;;;;40.37;26.30;;;;;;;;;;5074363;28;20203;-56
2023/04/09 09:28:05;;;;;;;39.10;24.93;;;;;;;;;;5074164;28;20711;-57
2023/04/09 09:30:33;;;;;;;37.63;27.33;;;;;;;;;;5074103;28;20203;-56
2023/04/09 09:33:04;;;;;;;38.37;26.40;;;;;;;;;;5074052;28;20776;-56
2023/04/09 09:35:30;;;;;;;36.63;26.00;;;;;;;;;;5074094;28;20286;-56
2023/04/09 09:38:05;;;;;;;34.93;25.00;;;;;;;;;;5074469;28;20249;-56
2023/04/09 09:40:33;;;;;;;36.60;24.53;;;;;;;;;;5074328;28;20250;-56
2023/04/09 09:42:59;;;;;;;39.60;27.20;;;;;;;;;;5074358;28;20200;-56
2023/04/09 09:45:25;;;;;;;34.67;25.40;;;;;;;;;;5074153;28;20226;-56
2023/04/09 09:47:52;;;;;;;36.27;26.43;;;;;;;;;;5072775;28;20965;-56
2023/04/09 09:50:18;;;;;;;38.50;26.97;;;;;;;;;;5074284;28;20202;-57
2023/04/09 09:52:46;;;;;;;36.00;26.00;;;;;;;;;;5074041;28;20257;-55
2023/04/09 09:55:14;;;;;;;35.83;25.93;;;;;;;;;;5073908;28;20198;-55
2023/04/09 09:57:43;;;;;;;38.77;27.27;;;;;;;;;;5073644;28;20254;-56
2023/04/09 10:00:11;;;;;;;35.23;24.90;;;;;;;;;;5073725;28;20234;-56
2023/04/09 10:02:40;;;;;;;35.07;24.93;;;;;;;;;;5073563;28;20242;-56
2023/04/09 10:05:08;;;;;;;36.90;27.80;;;;;;;;;;5073783;28;20218;-56
2023/04/09 10:07:35;;;;;;;33.77;25.17;;;;;;;;;;5073580;28;20255;-56
2023/04/09 10:10:02;;;;;;;34.17;26.60;;;;;;;;;;5073635;28;20223;-56
2023/04/09 10:12:28;;;;;;;36.90;26.60;;;;;;;;;;5073418;28;20195;-56
2023/04/09 10:14:56;;;;;;;35.70;26.23;;;;;;;;;;5073616;28;20199;-55
2023/04/09 10:17:22;;;;;;;36.23;27.40;;;;;;;;;;5073500;28;20210;-57
2023/04/09 10:19:52;;;;;;;39.97;27.83;;;;;;;;;;5073301;28;20223;-57
2023/04/09 10:22:21;;;;;;;37.30;27.60;;;;;;;;;;5073377;28;20195;-57
2023/04/09 10:24:47;;;;;;;35.03;25.47;;;;;;;;;;5064018;28;20207;-56
2023/04/09 10:27:14;;;;;;;34.47;26.07;;;;;;;;;;5073613;28;20294;-57
2023/04/09 10:29:44;;;;;;;33.97;26.30;;;;;;;;;;5073144;28;20192;-56
2023/04/09 10:32:12;;;;;;;33.17;24.87;;;;;;;;;;5071451;28;20235;-56
2023/04/09 10:34:39;;;;;;;34.13;24.87;;;;;;;;;;5053279;28;20655;-56
2023/04/09 10:37:07;;;;;;;34.27;24.20;;;;;;;;;;5048966;28;20708;-57
2023/04/09 10:39:33;;;;;;;35.93;25.97;;;;;;;;;;5052793;28;20777;-58
2023/04/09 10:42:01;;;;;;;33.10;25.00;;;;;;;;;;5053190;28;20202;-57
2023/04/09 10:44:30;;;;;;;35.83;25.23;;;;;;;;;;5052912;28;20200;-57
2023/04/09 10:46:56;;;;;;;33.73;25.73;;;;;;;;;;5053033;28;20283;-57
2023/04/09 10:49:25;;;;;;;32.57;23.97;;;;;;;;;;5052922;28;20193;-57
2023/04/09 10:51:51;;;;;;;33.47;25.27;;;;;;;;;;5052558;28;20204;-58
2023/04/09 10:54:37;;;;;;;35.57;25.40;;;;;;;;;;5052705;28;20196;-57
2023/04/09 10:57:10;;;;;;;29.67;23.50;;;;;;;;;;5052668;28;20682;-58
2023/04/09 10:59:36;;;;;;;32.93;24.23;;;;;;;;;;5052156;28;20481;-58
2023/04/09 11:02:02;;;;;;;30.93;24.30;;;;;;;;;;5052665;28;20201;-57
2023/04/09 11:04:33;;;;;;;34.73;26.67;;;;;;;;;;5052531;28;20558;-57
2023/04/09 11:07:00;;;;;;;32.13;23.20;;;;;;;;;;5052846;28;20262;-57
2023/04/09 11:09:26;;;;;;;30.90;22.87;;;;;;;;;;5052473;28;20684;-58
2023/04/09 11:11:53;;;;;;;31.23;24.60;;;;;;;;;;5052423;28;20200;-56
2023/04/09 11:14:19;;;;;;;31.37;23.93;;;;;;;;;;5052524;28;20196;-56
2023/04/09 11:16:47;;;;;;;27.97;21.77;;;;;;;;;;5052451;28;20196;-56
2023/04/09 11:19:13;;;;;;;26.07;20.87;;;;;;;;;;5052471;28;20204;-56
2023/04/09 11:21:45;;;;;;;25.27;19.97;;;;;;;;;;5052153;28;20281;-56
2023/04/09 11:24:11;;;;;;;25.90;21.07;;;;;;;;;;5052504;28;20200;-57
2023/04/09 11:26:37;;;;;;;26.30;20.50;;;;;;;;;;5052169;28;20626;-57
2023/04/09 11:29:10;;;;;;;26.67;21.23;;;;;;;;;;5052259;28;20719;-58
2023/04/09 11:31:36;;;;;;;25.53;21.30;;;;;;;;;;5051812;28;20243;-57
2023/04/09 11:34:02;;;;;;;23.87;20.40;;;;;;;;;;5052330;28;20196;-58
2023/04/09 11:36:28;;;;;;;23.97;18.70;;;;;;;;;;5051944;28;20601;-58
2023/04/09 11:38:56;;;;;;;22.27;18.57;;;;;;;;;;5052335;28;20210;-58
2023/04/09 11:41:32;;;;;;;24.63;19.97;;;;;;;;;;5051811;28;20799;-58
2023/04/09 11:43:58;;;;;;;22.77;19.33;;;;;;;;;;5052107;28;20192;-57
2023/04/09 11:46:25;;;;;;;22.17;19.17;;;;;;;;;;5052030;28;20207;-58
2023/04/09 11:48:51;;;;;;;21.37;17.83;;;;;;;;;;5051759;28;20223;-58
2023/04/09 11:51:17;;;;;;;19.30;17.20;;;;;;;;;;5051997;28;20208;-58
2023/04/09 11:53:43;;;;;;;16.83;14.77;;;;;;;;;;5051757;28;20725;-58
2023/04/09 11:56:10;;;;;;;17.27;15.40;;;;;;;;;;5051424;28;20718;-58
2023/04/09 11:58:36;;;;;;;16.13;13.97;;;;;;;;;;5051634;28;20204;-57
2023/04/09 12:01:02;;;;;;;14.37;12.87;;;;;;;;;;5051713;28;20243;-57
2023/04/09 12:03:29;;;;;;;13.97;12.47;;;;;;;;;;5051640;28;20196;-57
2023/04/09 12:05:55;;;;;;;14.27;12.77;;;;;;;;;;5051722;28;20208;-57
2023/04/09 12:08:23;;;;;;;24.00;21.53;;;;;;;;;;5051558;28;20612;-57
2023/04/09 12:10:50;;;;;;;14.23;12.67;;;;;;;;;;5050824;28;20223;-56
2023/04/09 12:13:18;;;;;;;13.00;11.60;;;;;;;;;;5051691;28;20206;-57
2023/04/09 12:15:44;;;;;;;10.90;9.60;;;;;;;;;;5051523;28;20204;-57
2023/04/09 12:18:10;;;;;;;10.43;9.13;;;;;;;;;;5051558;28;20199;-57
2023/04/09 12:20:38;;;;;;;10.00;8.87;;;;;;;;;;5051348;28;20311;-57
2023/04/09 12:23:05;;;;;;;9.47;8.13;;;;;;;;;;5051651;28;20606;-57
2023/04/09 12:25:31;;;;;;;9.40;8.43;;;;;;;;;;5051501;28;20203;-58
2023/04/09 12:27:58;;;;;;;9.93;8.90;;;;;;;;;;5051583;28;20211;-56
2023/04/09 12:30:25;;;;;;;9.30;8.40;;;;;;;;;;5051553;28;20230;-55
2023/04/09 12:32:55;;;;;;;11.47;10.27;;;;;;;;;;5051335;28;20663;-56
2023/04/09 12:35:21;;;;;;;10.40;9.33;;;;;;;;;;5051389;28;20197;-55
2023/04/09 12:37:48;;;;;;;11.53;10.33;;;;;;;;;;5051068;28;20229;-55
2023/04/09 12:40:14;;;;;;;10.00;8.77;;;;;;;;;;5050690;28;20263;-56
2023/04/09 12:42:40;;;;;;;11.50;9.53;;;;;;;;;;5051435;28;20617;-54
2023/04/09 12:45:07;;;;;;;12.80;10.57;;;;;;;;;;5050713;28;20291;-57
2023/04/09 12:47:34;;;;;;;11.13;9.87;;;;;;;;;;5050980;28;20342;-55
2023/04/09 12:50:00;;;;;;;11.90;10.70;;;;;;;;;;5050980;28;20196;-54
2023/04/09 12:52:26;;;;;;;12.63;10.83;;;;;;;;;;5050924;28;20226;-54
2023/04/09 12:54:52;;;;;;;11.60;10.33;;;;;;;;;;5051000;28;20200;-55
2023/04/09 12:57:18;;;;;;;11.03;9.93;;;;;;;;;;5050916;28;20635;-57
2023/04/09 12:59:44;;;;;;;11.30;10.10;;;;;;;;;;5051041;28;20229;-56
2023/04/09 13:02:10;;;;;;;12.10;10.87;;;;;;;;;;5051261;28;20208;-55
2023/04/09 13:04:38;;;;;;;11.63;10.43;;;;;;;;;;5050803;28;20200;-54
2023/04/09 13:07:04;;;;;;;15.57;13.63;;;;;;;;;;5050981;28;20223;-54
2023/04/09 13:09:30;;;;;;;15.63;13.80;;;;;;;;;;5050979;28;20216;-55
2023/04/09 13:11:56;;;;;;;15.93;14.10;;;;;;;;;;5051107;28;20207;-57
2023/04/09 13:14:22;;;;;;;15.80;14.10;;;;;;;;;;5051108;28;20204;-57
2023/04/09 13:16:48;;;;;;;15.53;13.93;;;;;;;;;;5051047;28;20196;-57
2023/04/09 13:19:15;;;;;;;14.93;13.27;;;;;;;;;;5051155;28;20200;-57
2023/04/09 13:21:42;;;;;;;15.30;13.17;;;;;;;;;;5051920;28;20319;-57
2023/04/09 13:24:08;;;;;;;17.07;15.27;;;;;;;;;;5054435;28;20690;-57
2023/04/09 13:26:34;;;;;;;15.53;13.20;;;;;;;;;;5054694;28;20212;-56
2023/04/09 13:29:01;;;;;;;16.83;15.03;;;;;;;;;;5055054;28;20207;-57
2023/04/09 13:31:27;;;;;;;17.83;15.83;;;;;;;;;;5054451;28;20208;-57
2023/04/09 13:33:53;;;;;;;16.63;14.93;;;;;;;;;;5054510;28;20200;-58
2023/04/09 13:36:19;;;;;;;18.97;15.07;;;;;;;;;;5054469;28;20218;-57
2023/04/09 13:38:47;;;;;;;16.47;14.27;;;;;;;;;;5054561;28;20781;-57
2023/04/09 13:41:14;;;;;;;18.37;15.40;;;;;;;;;;5054203;28;20248;-57
2023/04/09 13:43:40;;;;;;;20.30;14.47;;;;;;;;;;5054078;28;20620;-57
2023/04/09 13:46:06;;;;;;;18.43;15.60;;;;;;;;;;5054198;28;20202;-59
2023/04/09 13:48:32;;;;;;;16.90;14.77;;;;;;;;;;5054119;28;20223;-58
2023/04/09 13:50:58;;;;;;;17.07;15.13;;;;;;;;;;5054055;28;20228;-57
2023/04/09 13:53:24;;;;;;;17.83;15.47;;;;;;;;;;5054026;28;20667;-58
2023/04/09 13:55:51;;;;;;;20.07;15.80;;;;;;;;;;5053665;28;20224;-57
2023/04/09 13:58:18;;;;;;;18.80;15.50;;;;;;;;;;5053690;28;20679;-57
2023/04/09 14:00:45;;;;;;;17.47;15.30;;;;;;;;;;5053455;28;20228;-58
2023/04/09 14:03:11;;;;;;;17.43;15.03;;;;;;;;;;5065098;28;20294;-58
2023/04/09 14:05:37;;;;;;;17.77;15.87;;;;;;;;;;5071235;28;20200;-57
2023/04/09 14:08:03;;;;;;;19.47;15.63;;;;;;;;;;5072979;28;20203;-58
2023/04/09 14:10:29;;;;;;;17.87;15.60;;;;;;;;;;5073115;28;20385;-58
2023/04/09 14:12:57;;;;;;;16.67;13.97;;;;;;;;;;5073274;28;20283;-57
2023/04/09 14:15:23;;;;;;;16.20;13.87;;;;;;;;;;5073263;28;20196;-58